createdAt,value
2023-05-17T00:00:58.478Z,9.00
2023-05-17T00:03:25.275Z,11.20
2023-05-17T00:05:52.648Z,8.70
2023-05-17T00:08:19.314Z,8.80
2023-05-17T00:10:46.040Z,7.20
2023-05-17T00:13:12.894Z,8.70
2023-05-17T00:15:39.604Z,7.40
2023-05-17T00:18:06.312Z,7.90
2023-05-17T00:20:34.114Z,9.30
2023-05-17T00:23:00.736Z,11.50
2023-05-17T00:25:27.739Z,9.70
2023-05-17T00:27:55.090Z,14.20
2023-05-17T00:30:21.873Z,8.20
2023-05-17T00:32:49.142Z,8.90
2023-05-17T00:35:15.985Z,9.20
2023-05-17T00:37:47.078Z,11.20
2023-05-17T00:42:42.059Z,7.20
2023-05-17T00:45:10.167Z,10.00
2023-05-17T00:47:37.476Z,15.10
2023-05-17T00:50:05.647Z,7.90
2023-05-17T00:52:32.571Z,12.90
2023-05-17T00:54:59.286Z,10.00
2023-05-17T00:57:26.397Z,9.60
2023-05-17T00:59:54.809Z,7.20
2023-05-17T01:02:21.893Z,6.90
2023-05-17T01:04:49.472Z,8.60
2023-05-17T01:07:17.375Z,8.30
2023-05-17T01:09:47.114Z,9.50
2023-05-17T01:12:13.973Z,10.00
2023-05-17T01:14:53.750Z,9.20
2023-05-17T01:17:25.032Z,13.10
2023-05-17T01:20:05.948Z,12.60
2023-05-17T01:22:39.641Z,8.00
2023-05-17T01:25:17.273Z,11.20
2023-05-17T01:27:44.970Z,9.00
2023-05-17T01:30:12.970Z,9.20
2023-05-17T01:32:41.361Z,8.00
2023-05-17T01:35:10.122Z,11.40
2023-05-17T01:37:38.230Z,8.80
2023-05-17T01:40:06.691Z,7.70
2023-05-17T01:42:33.513Z,15.60
2023-05-17T01:45:00.658Z,8.20
2023-05-17T01:47:36.222Z,10.80
2023-05-17T01:50:03.203Z,8.80
2023-05-17T01:52:35.503Z,7.20
2023-05-17T01:55:05.573Z,9.40
2023-05-17T01:57:35.555Z,9.70
2023-05-17T02:00:05.995Z,9.60
2023-05-17T02:02:42.265Z,11.60
2023-05-17T02:05:09.430Z,9.80
2023-05-17T02:07:41.092Z,9.70
2023-05-17T02:10:08.833Z,6.60
2023-05-17T02:12:36.380Z,9.80
2023-05-17T02:15:04.350Z,10.00
2023-05-17T02:17:32.367Z,14.10
2023-05-17T02:19:59.094Z,8.90
2023-05-17T02:22:25.677Z,11.20
2023-05-17T02:24:52.379Z,8.40
2023-05-17T02:27:19.283Z,7.40
2023-05-17T02:29:46.088Z,11.30
2023-05-17T02:32:12.989Z,12.30
2023-05-17T02:34:39.637Z,9.40
2023-05-17T02:37:06.495Z,13.90
2023-05-17T02:39:33.235Z,11.50
2023-05-17T02:42:00.025Z,6.70
2023-05-17T02:44:26.742Z,7.80
2023-05-17T02:46:53.505Z,11.70
2023-05-17T02:49:20.161Z,11.50
2023-05-17T02:51:47.290Z,9.00
2023-05-17T02:54:14.023Z,12.80
2023-05-17T02:56:40.853Z,11.20
2023-05-17T02:59:07.792Z,10.60
2023-05-17T03:01:36.080Z,12.10
2023-05-17T03:04:03.718Z,10.80
2023-05-17T03:06:31.199Z,12.70
2023-05-17T03:08:58.664Z,10.40
2023-05-17T03:11:26.251Z,15.40
2023-05-17T03:13:55.004Z,9.30
2023-05-17T03:16:25.882Z,9.80
2023-05-17T03:18:52.996Z,12.30
2023-05-17T03:21:20.889Z,9.10
2023-05-17T03:23:48.325Z,11.60
2023-05-17T03:26:15.668Z,11.70
2023-05-17T03:28:47.117Z,12.20
2023-05-17T03:31:14.296Z,7.70
2023-05-17T03:33:41.695Z,10.40
2023-05-17T03:36:08.768Z,9.60
2023-05-17T03:38:35.649Z,10.80
2023-05-17T03:41:03.102Z,11.90
2023-05-17T03:43:30.199Z,20.10
2023-05-17T03:45:58.180Z,10.20
2023-05-17T03:48:25.058Z,9.90
2023-05-17T03:50:52.693Z,7.60
2023-05-17T03:53:19.295Z,12.70
2023-05-17T03:55:46.050Z,13.60
2023-05-17T03:58:13.059Z,11.50
2023-05-17T04:00:40.847Z,11.30
2023-05-17T04:03:10.216Z,12.50
2023-05-17T04:05:37.620Z,13.80
2023-05-17T04:08:04.753Z,15.30
2023-05-17T04:10:31.701Z,12.20
2023-05-17T04:12:58.358Z,10.80
2023-05-17T04:15:25.868Z,11.60
2023-05-17T04:17:54.928Z,11.60
2023-05-17T04:20:21.682Z,12.60
2023-05-17T04:22:48.717Z,10.90
2023-05-17T04:25:16.521Z,12.60
2023-05-17T04:27:45.960Z,12.30
2023-05-17T04:30:14.194Z,10.60
2023-05-17T04:32:43.274Z,11.50
2023-05-17T04:35:11.296Z,7.60
2023-05-17T04:37:39.768Z,10.50
2023-05-17T04:40:14.235Z,11.40
2023-05-17T04:42:42.099Z,12.50
2023-05-17T04:45:09.776Z,8.30
2023-05-17T04:47:37.176Z,12.20
2023-05-17T04:50:04.609Z,7.10
2023-05-17T04:54:32.548Z,11.70
2023-05-17T04:57:00.702Z,14.50
2023-05-17T04:59:50.354Z,9.40
2023-05-17T05:02:17.624Z,13.00
2023-05-17T05:04:44.756Z,8.50
2023-05-17T05:07:12.270Z,13.30
2023-05-17T05:09:39.581Z,12.20
2023-05-17T05:12:07.035Z,10.30
2023-05-17T05:14:34.938Z,7.70
2023-05-17T05:17:02.096Z,9.50
2023-05-17T05:19:29.691Z,16.20
2023-05-17T05:21:57.789Z,10.70
2023-05-17T05:24:24.537Z,10.10
2023-05-17T05:26:51.477Z,13.60
2023-05-17T05:29:19.233Z,10.30
2023-05-17T05:31:46.450Z,9.80
2023-05-17T05:34:14.021Z,11.20
2023-05-17T05:36:41.504Z,11.70
2023-05-17T05:39:09.936Z,12.80
2023-05-17T05:41:37.600Z,9.70
2023-05-17T05:44:04.620Z,13.00
2023-05-17T05:46:31.420Z,9.20
2023-05-17T05:48:58.331Z,7.60
2023-05-17T05:51:25.795Z,7.00
2023-05-17T05:53:52.740Z,14.30
2023-05-17T05:56:22.178Z,9.60
2023-05-17T05:58:50.571Z,13.40
2023-05-17T06:01:17.798Z,12.00
2023-05-17T06:03:44.598Z,11.70
2023-05-17T06:06:11.520Z,9.10
2023-05-17T06:08:38.377Z,10.70
2023-05-17T06:11:05.230Z,15.70
2023-05-17T06:13:32.000Z,13.60
2023-05-17T06:15:59.730Z,10.70
2023-05-17T06:18:26.778Z,10.20
2023-05-17T06:20:53.625Z,9.50
2023-05-17T06:23:20.546Z,15.10
2023-05-17T06:25:47.330Z,6.30
2023-05-17T06:28:14.094Z,12.10
2023-05-17T06:30:41.178Z,12.40
2023-05-17T06:33:08.717Z,10.20
2023-05-17T06:35:47.889Z,8.00
2023-05-17T06:38:23.415Z,8.90
2023-05-17T06:40:57.481Z,11.80
2023-05-17T06:43:25.634Z,11.60
2023-05-17T06:45:52.853Z,9.30
2023-05-17T06:48:19.847Z,10.30
2023-05-17T06:50:46.887Z,8.80
2023-05-17T06:53:13.884Z,8.30
2023-05-17T06:55:41.542Z,13.90
2023-05-17T06:58:08.377Z,7.80
2023-05-17T07:00:39.142Z,9.40
2023-05-17T07:03:06.069Z,9.10
2023-05-17T07:05:33.312Z,13.30
2023-05-17T07:08:00.761Z,18.00
2023-05-17T07:10:27.685Z,15.60
2023-05-17T07:12:54.529Z,14.90
2023-05-17T07:15:21.390Z,5.70
2023-05-17T07:17:48.271Z,6.70
2023-05-17T07:20:15.559Z,6.50
2023-05-17T07:22:42.500Z,6.50
2023-05-17T07:25:10.478Z,4.90
2023-05-17T07:27:37.312Z,7.00
2023-05-17T07:30:04.503Z,5.90
2023-05-17T07:32:31.360Z,13.90
2023-05-17T07:34:58.276Z,5.50
2023-05-17T07:37:25.075Z,4.30
2023-05-17T07:39:52.097Z,6.90
2023-05-17T07:42:18.907Z,3.80
2023-05-17T07:44:49.087Z,5.20
2023-05-17T07:47:17.749Z,7.30
2023-05-17T07:49:45.015Z,6.00
2023-05-17T07:52:11.888Z,7.90
2023-05-17T07:54:38.819Z,15.20
2023-05-17T07:57:05.709Z,6.40
2023-05-17T07:59:32.471Z,7.20
2023-05-17T08:01:59.255Z,8.00
2023-05-17T08:04:26.287Z,4.60
2023-05-17T08:06:55.561Z,4.70
2023-05-17T08:09:22.369Z,5.50
2023-05-17T08:11:49.249Z,4.40
2023-05-17T08:14:16.439Z,8.40
2023-05-17T08:16:43.973Z,7.60
2023-05-17T08:19:13.076Z,7.00
2023-05-17T08:21:41.072Z,7.80
2023-05-17T08:24:08.355Z,9.00
2023-05-17T08:26:35.178Z,5.40
2023-05-17T08:29:02.701Z,14.20
2023-05-17T08:31:29.952Z,6.10
2023-05-17T08:33:56.885Z,8.10
2023-05-17T08:36:23.834Z,8.50
2023-05-17T08:38:51.905Z,8.60
2023-05-17T08:41:19.570Z,10.60
2023-05-17T08:43:47.307Z,14.50
2023-05-17T08:46:14.085Z,8.30
2023-05-17T08:48:42.106Z,9.70
2023-05-17T08:51:12.262Z,9.50
2023-05-17T08:53:39.067Z,6.20
2023-05-17T08:56:07.132Z,7.90
2023-05-17T08:58:48.056Z,10.90
2023-05-17T09:01:18.997Z,6.30
2023-05-17T09:03:54.749Z,14.10
2023-05-17T09:06:22.293Z,8.90
2023-05-17T09:08:53.296Z,6.90
2023-05-17T09:11:27.966Z,12.20
2023-05-17T09:14:01.524Z,11.20
2023-05-17T09:16:29.668Z,11.40
2023-05-17T09:18:57.526Z,13.70
2023-05-17T09:21:25.148Z,10.20
2023-05-17T09:24:04.710Z,15.50
2023-05-17T09:29:14.224Z,15.10
2023-05-17T09:31:41.486Z,14.80
2023-05-17T09:34:08.772Z,15.30
2023-05-17T09:36:37.805Z,12.80
2023-05-17T09:39:06.344Z,7.20
2023-05-17T09:41:34.101Z,9.80
2023-05-17T09:44:01.599Z,9.30
2023-05-17T09:46:29.117Z,8.10
2023-05-17T09:48:56.931Z,7.30
2023-05-17T09:51:33.950Z,6.50
2023-05-17T09:54:00.810Z,8.50
2023-05-17T09:56:30.964Z,7.80
2023-05-17T09:59:01.571Z,7.80
2023-05-17T10:01:29.360Z,6.50
2023-05-17T10:03:59.658Z,8.60
2023-05-17T10:06:38.975Z,6.30
2023-05-17T10:09:16.036Z,5.60
2023-05-17T10:11:46.848Z,7.80
2023-05-17T10:16:50.987Z,5.20
2023-05-17T10:19:20.252Z,4.90
2023-05-17T10:21:51.060Z,6.70
2023-05-17T10:24:17.905Z,6.10
2023-05-17T10:26:44.670Z,9.40
2023-05-17T10:29:11.751Z,5.80
2023-05-17T10:31:38.585Z,6.80
2023-05-17T10:34:06.521Z,11.40
2023-05-17T10:36:33.881Z,12.20
2023-05-17T10:39:00.889Z,14.20
2023-05-17T10:41:30.503Z,11.90
2023-05-17T10:43:57.892Z,13.70
2023-05-17T10:46:24.971Z,22.80
2023-05-17T10:48:52.656Z,14.70
2023-05-17T10:51:37.795Z,11.40
2023-05-17T10:54:05.414Z,11.20
2023-05-17T10:56:32.858Z,14.90
2023-05-17T10:59:24.306Z,5.80
2023-05-17T11:02:04.805Z,7.40
2023-05-17T11:04:38.793Z,7.80
2023-05-17T11:07:29.311Z,7.60
2023-05-17T11:10:06.336Z,6.70
2023-05-17T11:12:43.219Z,9.40
2023-05-17T11:15:14.294Z,6.00
2023-05-17T11:17:44.631Z,9.90
2023-05-17T11:20:16.454Z,3.80
2023-05-17T11:23:16.502Z,7.40
2023-05-17T11:25:43.407Z,6.40
2023-05-17T11:28:18.433Z,5.20
2023-05-17T11:30:51.488Z,8.80
2023-05-17T11:33:33.294Z,7.00
2023-05-17T11:36:05.590Z,5.60
2023-05-17T11:38:33.134Z,6.00
2023-05-17T11:41:26.592Z,12.30
2023-05-17T11:43:53.674Z,7.60
2023-05-17T11:46:22.622Z,5.10
2023-05-17T11:48:53.941Z,6.70
2023-05-17T11:51:23.875Z,11.20
2023-05-17T11:53:55.336Z,8.40
2023-05-17T11:59:11.292Z,7.00
2023-05-17T12:01:51.133Z,5.70
2023-05-17T12:04:27.709Z,4.10
2023-05-17T12:06:54.873Z,6.70
2023-05-17T12:09:26.514Z,8.20
2023-05-17T12:11:53.503Z,6.10
2023-05-17T12:14:23.206Z,6.40
2023-05-17T12:16:54.094Z,6.10
2023-05-17T12:19:22.290Z,9.10
2023-05-17T12:21:50.005Z,4.90
2023-05-17T12:24:17.055Z,6.80
2023-05-17T12:26:45.146Z,13.60
2023-05-17T12:29:12.234Z,6.80
2023-05-17T12:31:44.165Z,4.10
2023-05-17T12:34:12.879Z,7.00
2023-05-17T12:36:40.581Z,10.60
2023-05-17T12:39:09.942Z,6.30
2023-05-17T12:41:37.266Z,4.70
2023-05-17T12:44:14.609Z,9.10
2023-05-17T12:46:42.350Z,5.00
2023-05-17T12:49:09.426Z,6.40
2023-05-17T12:51:46.208Z,8.90
2023-05-17T12:54:16.309Z,4.30
2023-05-17T12:56:46.618Z,7.90
2023-05-17T12:59:17.316Z,4.80
2023-05-17T13:01:45.918Z,10.90
2023-05-17T13:04:13.501Z,4.20
2023-05-17T13:06:43.598Z,5.40
2023-05-17T13:09:10.507Z,9.70
2023-05-17T13:11:41.328Z,6.10
2023-05-17T13:14:09.079Z,8.30
2023-05-17T13:16:39.602Z,4.90
2023-05-17T13:19:14.548Z,14.20
2023-05-17T13:21:41.555Z,21.10
2023-05-17T13:24:09.511Z,37.00
2023-05-17T13:26:36.330Z,18.40
2023-05-17T13:29:03.310Z,13.70
2023-05-17T13:31:30.090Z,9.40
2023-05-17T13:33:57.119Z,14.90
2023-05-17T13:36:24.227Z,9.20
2023-05-17T13:38:51.160Z,12.00
2023-05-17T13:41:18.054Z,12.90
2023-05-17T13:43:44.906Z,10.00
2023-05-17T13:46:11.779Z,13.20
2023-05-17T13:48:40.463Z,11.70
2023-05-17T13:51:10.129Z,9.90
2023-05-17T13:53:38.816Z,8.90
2023-05-17T13:56:06.105Z,9.70
2023-05-17T13:58:33.506Z,8.20
2023-05-17T14:01:00.756Z,9.40
2023-05-17T14:03:27.948Z,11.40
2023-05-17T14:05:54.938Z,14.00
2023-05-17T14:08:21.806Z,8.00
2023-05-17T14:10:48.658Z,27.70
2023-05-17T14:13:15.544Z,7.80
2023-05-17T14:15:42.343Z,9.90
2023-05-17T14:18:09.798Z,8.20
2023-05-17T14:20:36.653Z,6.30
2023-05-17T14:23:03.576Z,11.70
2023-05-17T14:25:30.441Z,7.30
2023-05-17T14:27:57.231Z,9.70
2023-05-17T14:30:24.168Z,5.90
2023-05-17T14:32:50.993Z,6.60
2023-05-17T14:35:17.825Z,6.90
2023-05-17T14:37:44.683Z,6.00
2023-05-17T14:40:15.067Z,10.10
2023-05-17T14:42:54.776Z,12.70
2023-05-17T14:45:25.068Z,10.60
2023-05-17T14:47:52.850Z,9.60
2023-05-17T14:50:19.732Z,8.20
2023-05-17T14:52:46.654Z,7.10
2023-05-17T14:55:16.404Z,8.00
2023-05-17T14:57:43.860Z,6.00
2023-05-17T15:00:11.500Z,4.90
2023-05-17T15:02:38.455Z,13.50
2023-05-17T15:05:06.287Z,8.40
2023-05-17T15:07:34.723Z,5.40
2023-05-17T15:10:04.329Z,5.40
2023-05-17T15:12:32.275Z,6.20
2023-05-17T15:14:59.119Z,7.70
2023-05-17T15:17:26.038Z,7.20
2023-05-17T15:19:54.040Z,6.60
2023-05-17T15:22:21.001Z,4.70
2023-05-17T15:24:47.828Z,5.80
2023-05-17T15:27:17.217Z,7.80
2023-05-17T15:29:44.225Z,9.50
2023-05-17T15:32:11.323Z,7.90
2023-05-17T15:34:38.134Z,9.00
2023-05-17T15:37:04.924Z,8.00
2023-05-17T15:39:32.123Z,6.50
2023-05-17T15:41:58.963Z,4.10
2023-05-17T15:44:25.837Z,6.40
2023-05-17T15:46:52.808Z,7.40
2023-05-17T15:49:19.737Z,7.20
2023-05-17T15:51:47.171Z,6.00
2023-05-17T15:54:17.283Z,9.20
2023-05-17T15:56:44.078Z,17.30
2023-05-17T15:59:10.894Z,11.90
2023-05-17T16:01:37.738Z,6.20
2023-05-17T16:04:04.723Z,3.60
2023-05-17T16:06:36.026Z,6.30
2023-05-17T16:09:03.135Z,4.60
2023-05-17T16:11:30.068Z,4.80
2023-05-17T16:13:57.296Z,10.80
2023-05-17T16:16:24.085Z,8.60
2023-05-17T16:18:51.146Z,4.70
2023-05-17T16:21:21.123Z,10.70
2023-05-17T16:23:48.026Z,5.40
2023-05-17T16:26:16.018Z,6.80
2023-05-17T16:28:42.880Z,6.90
2023-05-17T16:31:10.142Z,7.70
2023-05-17T16:33:37.161Z,10.60
2023-05-17T16:36:05.071Z,9.80
2023-05-17T16:38:31.897Z,17.90
2023-05-17T16:41:03.413Z,16.00
2023-05-17T16:43:30.961Z,15.40
2023-05-17T16:45:57.792Z,20.30
2023-05-17T16:48:24.733Z,19.20
2023-05-17T16:50:52.211Z,23.10
2023-05-17T16:53:18.965Z,29.00
2023-05-17T16:55:45.800Z,44.70
2023-05-17T16:58:13.191Z,40.70
2023-05-17T17:00:40.166Z,35.50
2023-05-17T17:03:09.478Z,41.90
2023-05-17T17:05:36.857Z,38.20
2023-05-17T17:08:03.699Z,31.10
2023-05-17T17:11:26.353Z,28.40
2023-05-17T17:13:53.627Z,27.80
2023-05-17T17:16:21.230Z,24.60
2023-05-17T17:18:49.733Z,26.80
2023-05-17T17:21:17.111Z,24.50
2023-05-17T17:23:44.549Z,29.50
2023-05-17T17:26:11.626Z,31.00
2023-05-17T17:28:38.624Z,18.40
2023-05-17T17:31:06.282Z,31.80
2023-05-17T17:33:33.294Z,23.80
2023-05-17T17:36:01.657Z,29.60
2023-05-17T17:38:28.520Z,24.30
2023-05-17T17:40:55.588Z,29.50
2023-05-17T17:43:22.472Z,22.80
2023-05-17T17:45:49.258Z,24.00
2023-05-17T17:48:18.287Z,22.00
2023-05-17T17:50:45.157Z,29.10
2023-05-17T17:53:11.953Z,28.00
2023-05-17T17:55:38.840Z,30.40
2023-05-17T17:58:05.611Z,28.60
2023-05-17T18:00:32.518Z,27.50
2023-05-17T18:02:59.509Z,21.60
2023-05-17T18:05:26.552Z,24.70
2023-05-17T18:07:53.315Z,24.50
2023-05-17T18:10:20.453Z,20.80
2023-05-17T18:12:47.919Z,25.30
2023-05-17T18:15:15.934Z,27.20
2023-05-17T18:17:42.821Z,18.10
2023-05-17T18:20:09.790Z,21.20
2023-05-17T18:22:36.577Z,15.60
2023-05-17T18:25:03.553Z,17.30
2023-05-17T18:27:31.436Z,16.10
2023-05-17T18:29:58.309Z,19.70
2023-05-17T18:32:25.475Z,13.40
2023-05-17T18:34:55.072Z,14.00
2023-05-17T18:37:21.987Z,15.70
2023-05-17T18:39:48.885Z,15.10
2023-05-17T18:42:17.080Z,22.80
2023-05-17T18:44:43.891Z,14.90
2023-05-17T18:47:12.103Z,22.50
2023-05-17T18:49:44.144Z,18.40
2023-05-17T18:52:12.090Z,20.80
2023-05-17T18:54:39.000Z,20.10
2023-05-17T18:57:05.996Z,19.20
2023-05-17T18:59:33.062Z,13.50
2023-05-17T19:02:00.584Z,21.60
2023-05-17T19:04:28.603Z,21.60
2023-05-17T19:06:56.721Z,17.40
2023-05-17T19:09:23.594Z,17.10
2023-05-17T19:11:50.511Z,15.10
2023-05-17T19:14:18.230Z,20.10
2023-05-17T19:16:45.539Z,15.70
2023-05-17T19:19:12.419Z,17.40
2023-05-17T19:21:39.548Z,15.70
2023-05-17T19:24:06.667Z,16.40
2023-05-17T19:26:33.587Z,16.50
2023-05-17T19:29:00.592Z,11.90
2023-05-17T19:31:27.719Z,18.30
2023-05-17T19:33:54.591Z,16.60
2023-05-17T19:36:21.482Z,23.30
2023-05-17T19:38:51.189Z,17.80
2023-05-17T19:41:21.421Z,36.70
2023-05-17T19:43:48.245Z,80.50
2023-05-17T19:46:15.074Z,48.60
2023-05-17T19:48:41.962Z,67.70
2023-05-17T19:51:08.947Z,46.60
2023-05-17T19:53:51.021Z,22.30
2023-05-17T19:56:21.713Z,14.60
2023-05-17T19:58:48.564Z,10.90
2023-05-17T20:01:15.483Z,14.20
2023-05-17T20:03:42.546Z,14.80
2023-05-17T20:06:14.920Z,12.00
2023-05-17T20:08:42.500Z,12.70
2023-05-17T20:11:09.346Z,19.90
2023-05-17T20:13:40.070Z,16.60
2023-05-17T20:16:12.692Z,11.90
2023-05-17T20:18:42.677Z,11.70
2023-05-17T20:21:11.273Z,13.10
2023-05-17T20:23:38.136Z,11.50
2023-05-17T20:26:05.014Z,16.50
2023-05-17T20:28:31.758Z,13.60
2023-05-17T20:30:58.755Z,19.90
2023-05-17T20:33:26.797Z,15.60
2023-05-17T20:35:53.872Z,11.00
2023-05-17T20:38:22.183Z,20.70
2023-05-17T20:40:51.643Z,9.90
2023-05-17T20:43:19.170Z,11.90
2023-05-17T20:45:46.132Z,12.70
2023-05-17T20:48:13.026Z,14.80
2023-05-17T20:50:41.436Z,10.20
2023-05-17T20:53:10.402Z,8.80
2023-05-17T20:55:37.243Z,13.50
2023-05-17T20:58:04.129Z,15.90
2023-05-17T21:00:31.886Z,10.50
2023-05-17T21:02:59.007Z,12.10
2023-05-17T21:05:25.959Z,12.20
2023-05-17T21:07:52.694Z,12.70
2023-05-17T21:10:19.457Z,10.30
2023-05-17T21:12:46.202Z,11.90
2023-05-17T21:15:18.537Z,10.20
2023-05-17T21:17:45.525Z,10.10
2023-05-17T21:20:13.504Z,11.90
2023-05-17T21:22:40.442Z,13.20
2023-05-17T21:25:08.227Z,9.90
2023-05-17T21:27:35.125Z,12.30
2023-05-17T21:30:01.863Z,10.80
2023-05-17T21:32:28.631Z,18.80
2023-05-17T21:34:55.417Z,16.70
2023-05-17T21:37:22.228Z,13.40
2023-05-17T21:39:48.974Z,11.00
2023-05-17T21:42:15.770Z,14.60
2023-05-17T21:44:42.547Z,9.70
2023-05-17T21:47:09.410Z,9.40
2023-05-17T21:49:36.236Z,13.70
2023-05-17T21:52:03.174Z,14.60
2023-05-17T21:54:30.118Z,9.70
2023-05-17T21:56:56.923Z,11.40
2023-05-17T21:59:25.228Z,13.40
2023-05-17T22:01:54.990Z,15.50
2023-05-17T22:04:22.015Z,11.20
2023-05-17T22:06:48.810Z,10.90
2023-05-17T22:09:15.640Z,14.00
2023-05-17T22:11:42.508Z,14.40
2023-05-17T22:14:09.369Z,13.80
2023-05-17T22:16:38.981Z,8.80
2023-05-17T22:19:05.955Z,14.70
2023-05-17T22:21:33.071Z,11.60
2023-05-17T22:23:59.881Z,11.70
2023-05-17T22:26:27.817Z,13.60
2023-05-17T22:28:55.753Z,17.40
2023-05-17T22:31:23.071Z,11.40
2023-05-17T22:33:52.358Z,12.70
2023-05-17T22:36:19.699Z,9.70
2023-05-17T22:38:46.770Z,12.60
2023-05-17T22:41:13.821Z,12.70
2023-05-17T22:43:40.637Z,13.70
2023-05-17T22:46:07.499Z,16.90
2023-05-17T22:48:37.499Z,12.30
2023-05-17T22:51:04.897Z,13.10
2023-05-17T22:53:31.941Z,13.20
2023-05-17T22:55:58.925Z,12.00
2023-05-17T22:58:26.124Z,13.60
2023-05-17T23:00:53.241Z,10.60
2023-05-17T23:03:20.473Z,10.90
2023-05-17T23:05:47.528Z,11.30
2023-05-17T23:08:15.671Z,13.80
2023-05-17T23:10:45.785Z,14.50
2023-05-17T23:13:12.988Z,14.50
2023-05-17T23:15:40.940Z,17.70
2023-05-17T23:18:08.153Z,14.20
2023-05-17T23:20:35.209Z,13.60
2023-05-17T23:23:02.261Z,11.70
2023-05-17T23:25:29.688Z,12.70
2023-05-17T23:27:58.733Z,12.30
2023-05-17T23:30:26.473Z,17.20
2023-05-17T23:32:55.290Z,12.20
2023-05-17T23:35:25.969Z,16.40
2023-05-17T23:37:52.787Z,18.20
2023-05-17T23:40:19.885Z,10.90
2023-05-17T23:42:46.622Z,13.00
2023-05-17T23:45:13.486Z,10.60
2023-05-17T23:47:41.071Z,19.60
2023-05-17T23:50:12.145Z,12.50
2023-05-17T23:52:39.595Z,12.80
2023-05-17T23:55:07.401Z,11.20
2023-05-17T23:57:35.304Z,17.00
